Buoy 46562

sailwx.info

Track history (hours):
 
Tides and Currents Weather Stations Pressure Air Temp Water Temp Dewpoint Dewpoint Depression Visibility Wind Speed Wind Dir Waves Ship Positions

Drifting buoy 46562

Last reported at 2014-Oct-31 17:00 UTC. Time now 2014-Nov-01 03:20 UTC.
Position N 54°12' W 155°40'.

Water temperature 8.6 ° C

Date/timePositionNaut miles runAvg speedWind from/ knotsBaromVisibWave heightAir tempDewpointWater temp
2014-Oct-31 17:00N 54°12' W 155°40'1 1.3 8.6
2014-Oct-31 16:00N 54°11' W 155°42'1 0.5 8.6
2014-Oct-31 15:00N 54°12' W 155°42'1 0.7 8.5
2014-Oct-31 14:00N 54°11' W 155°43'0 0.4 8.6
2014-Oct-31 13:00N 54°12' W 155°44'4 3.6 8.6
2014-Oct-31 12:00N 54°10' W 155°49'0 0.1 8.6
2014-Oct-31 08:00N 54°10' W 155°48'0 0.0 8.6
2014-Oct-31 07:00N 54°10' W 155°48'0 0.5 8.6
2014-Oct-31 06:00N 54°09' W 155°48'0 0.2 8.6
2014-Oct-31 05:00N 54°10' W 155°48'0 0.0 8.6
2014-Oct-31 04:00N 54°10' W 155°48'0 0.3 8.6
2014-Oct-31 03:00N 54°09' W 155°49'0 0.1 8.6
2014-Oct-31 01:00N 54°09' W 155°49'0 0.5 8.6
2014-Oct-31 00:00N 54°10' W 155°49'2 1.5 8.6
2014-Oct-30 23:00N 54°10' W 155°51'0 0.0 8.6
2014-Oct-30 22:00N 54°10' W 155°51'3 2.7 8.6
2014-Oct-30 21:00N 54°12' W 155°53'0 0.0 8.6
2014-Oct-30 20:00N 54°12' W 155°53'0 0.0 8.6
2014-Oct-30 19:00N 54°12' W 155°53'1 0.3 8.6
2014-Oct-30 17:00N 54°12' W 155°53'1 0.7 8.6
2014-Oct-30 16:00N 54°13' W 155°54'0 0.2 8.6
2014-Oct-30 14:00N 54°13' W 155°54'1 0.6 8.6
2014-Oct-30 13:00N 54°13' W 155°55'1 1.3 8.6
2014-Oct-30 12:00N 54°14' W 155°57'1 0.3 8.6
2014-Oct-30 08:00N 54°15' W 155°56'1 0.7 8.6
2014-Oct-30 07:00N 54°15' W 155°56'1 0.5 8.6
2014-Oct-30 05:00N 54°16' W 155°57'1 0.6 8.6
2014-Oct-30 04:00N 54°17' W 155°57'1 1.1 8.6
2014-Oct-30 03:00N 54°18' W 155°58'1 0.6 8.6
2014-Oct-30 02:00N 54°18' W 155°59'1 0.5 8.6
2014-Oct-30 00:00N 54°19' W 155°59'1 0.7 8.6
2014-Oct-29 23:00N 54°20' W 155°59'0 0.3 8.6
2014-Oct-29 22:00N 54°20' W 155°60'2 1.7 8.7
2014-Oct-29 21:00N 54°21' W 155°60'0 0.1 8.7
2014-Oct-29 20:00N 54°21' W 155°60'3 1.0 8.7
2014-Oct-29 17:00N 54°24' W 155°59'1 1.4 8.7
2014-Oct-29 16:00N 54°25' W 155°57'2 1.5 8.7
2014-Oct-29 15:00N 54°26' W 155°55'3 2.7 8.7
2014-Oct-29 14:00N 54°29' W 155°57'0 0.0 8.8
2014-Oct-29 12:00N 54°29' W 155°57'0 0.0 8.9
2014-Oct-29 11:00N 54°29' W 155°57'0 0.4 8.9
2014-Oct-29 10:00N 54°30' W 155°57'2 0.7 8.9
2014-Oct-29 07:00N 54°29' W 155°53'0 0.0 8.9
2014-Oct-29 06:00N 54°29' W 155°53'2 1.9 9.0
2014-Oct-29 05:00N 54°30' W 155°50'0 0.0 9.0
2014-Oct-29 04:00N 54°30' W 155°50'3 1.3 9.0
2014-Oct-29 02:00N 54°33' W 155°49'0 0.4 9.0
2014-Oct-29 01:00N 54°33' W 155°49'1 0.6 9.0
2014-Oct-29 00:00N 54°33' W 155°50'2 1.0 9.0
2014-Oct-28 22:00N 54°35' W 155°51'0 0.0 9.0
2014-Oct-28 21:00N 54°35' W 155°51'1 0.3 8.9
2014-Oct-28 18:00N 54°34' W 155°52'1 0.4 8.9
2014-Oct-28 16:00N 54°33' W 155°51'1 0.9 9.0
2014-Oct-28 15:00N 54°33' W 155°50'1 0.6 9.0
2014-Oct-28 14:00N 54°34' W 155°50'1 0.9 9.1
2014-Oct-28 13:00N 54°33' W 155°49'0 0.0 9.0
2014-Oct-28 12:00N 54°33' W 155°49'1 0.4 9.1
2014-Oct-28 09:00N 54°32' W 155°48'0 0.0 9.0
2014-Oct-28 08:00N 54°32' W 155°48'1 0.6 9.0
2014-Oct-28 07:00N 54°33' W 155°48'1 0.8 8.9
2014-Oct-28 06:00N 54°32' W 155°46'1 0.3 8.8
2014-Oct-28 04:00N 54°32' W 155°46'1 1.0 8.9
2014-Oct-28 03:00N 54°31' W 155°46'0 0.1 8.9
2014-Oct-28 02:00N 54°31' W 155°47'1 0.7 8.9
2014-Oct-28 01:00N 54°30' W 155°46'0 0.3 8.9
2014-Oct-28 00:00N 54°30' W 155°46'0 0.3 8.8
2014-Oct-27 23:00N 54°30' W 155°46'0 0.0 8.8
2014-Oct-27 22:00N 54°30' W 155°46'1 0.3 8.8
2014-Oct-27 18:00N 54°29' W 155°45'0 0.0 8.8
2014-Oct-27 17:00N 54°29' W 155°45'0 0.1 8.8
2014-Oct-27 16:00N 54°29' W 155°45'0 0.3 8.8
2014-Oct-27 15:00N 54°29' W 155°45'1 0.8 8.8
2014-Oct-27 14:00N 54°29' W 155°43'1 0.7 8.8
2014-Oct-27 13:00N 54°30' W 155°44'0 0.0 8.8
2014-Oct-27 12:00N 54°30' W 155°44'1 0.8 8.8
2014-Oct-27 11:00N 54°30' W 155°43'1 0.4 8.8
2014-Oct-27 07:00N 54°31' W 155°42'1 1.0 8.8
2014-Oct-27 06:00N 54°31' W 155°41'1 0.6 8.8
2014-Oct-27 05:00N 54°31' W 155°40'1 0.5 8.8
2014-Oct-27 04:00N 54°32' W 155°40'1 1.0 8.8
2014-Oct-27 03:00N 54°32' W 155°39'0 0.4 8.9
2014-Oct-27 02:00N 54°32' W 155°39'1 0.7 8.9
2014-Oct-27 00:00N 54°33' W 155°37'0 0.0 8.9
2014-Oct-26 23:00N 54°33' W 155°37'0 0.0 9.0
2014-Oct-26 22:00N 54°33' W 155°37'3 3.1 9.0
2014-Oct-26 21:00N 54°35' W 155°33'0 0.1 9.0
2014-Oct-26 17:00N 54°35' W 155°33'1 1.0 8.8
2014-Oct-26 16:00N 54°36' W 155°32'1 1.0 8.8
2014-Oct-26 15:00N 54°36' W 155°31'1 1.0 8.9
2014-Oct-26 14:00N 54°37' W 155°30'0 0.2 8.9
2014-Oct-26 13:00N 54°37' W 155°30'1 1.1 8.9
2014-Oct-26 12:00N 54°38' W 155°28'0 0.2 8.9
2014-Oct-26 11:00N 54°38' W 155°28'0 0.0 9.0
2014-Oct-26 10:00N 54°38' W 155°28'2 1.0 9.0
2014-Oct-26 08:00N 54°38' W 155°24'0 0.0 9.0
2014-Oct-26 07:00N 54°38' W 155°24'1 0.9 9.1
2014-Oct-26 06:00N 54°39' W 155°24'0 0.0 9.1
2014-Oct-26 05:00N 54°39' W 155°24'0 0.2 9.1
2014-Oct-26 03:00N 54°39' W 155°23'0 0.4 9.1
2014-Oct-26 02:00N 54°39' W 155°23'0 0.4 9.2
2014-Oct-26 01:00N 54°40' W 155°23'1 0.6 9.2
2014-Oct-26 00:00N 54°40' W 155°23'0 0.2 9.2
2014-Oct-25 23:00N 54°41' W 155°23'1 0.5 9.2
2014-Oct-25 21:00N 54°41' W 155°22'2 1.8 9.2
2014-Oct-25 20:00N 54°43' W 155°21'1 1.3 9.2
2014-Oct-25 19:00N 54°42' W 155°22'0 0.0 9.1
2014-Oct-25 18:00N 54°42' W 155°22'0 0.5 9.1
2014-Oct-25 17:00N 54°43' W 155°22'0 0.3 9.2
2014-Oct-25 16:00N 54°43' W 155°23'1 0.5 9.2
2014-Oct-25 15:00N 54°43' W 155°22'1 1.2 9.2
2014-Oct-25 14:00N 54°44' W 155°20'1 0.7 9.2
2014-Oct-25 13:00N 54°44' W 155°22'1 0.9 9.2
2014-Oct-25 12:00N 54°45' W 155°21'0 0.2 9.2
2014-Oct-25 11:00N 54°45' W 155°22'2 0.7 9.2
2014-Oct-25 08:00N 54°47' W 155°21'1 0.4 9.2
2014-Oct-25 06:00N 54°47' W 155°20'0 0.4 9.2
2014-Oct-25 05:00N 54°47' W 155°21'0 0.0 9.2
2014-Oct-25 04:00N 54°47' W 155°21'1 0.4 9.2
2014-Oct-25 02:00N 54°48' W 155°20'1 0.6 9.2
2014-Oct-25 01:00N 54°48' W 155°20'1 0.3 9.2
2014-Oct-24 23:00N 54°49' W 155°20'1 1.1 9.2
2014-Oct-24 22:00N 54°50' W 155°19'0 0.0 9.3
2014-Oct-24 21:00N 54°50' W 155°19'1 0.5 9.3
2014-Oct-24 18:00N 54°51' W 155°19'0 0.2 9.2
2014-Oct-24 17:00N 54°51' W 155°19'1 0.5 9.2
2014-Oct-24 16:00N 54°51' W 155°20'2 1.5 9.2
2014-Oct-24 15:00N 54°52' W 155°20'0 0.0 9.2
2014-Oct-24 14:00N 54°52' W 155°20'1 0.7 9.2
2014-Oct-24 13:00N 54°53' W 155°20'0 0.0 9.2
2014-Oct-24 11:00N 54°53' W 155°20'1 0.4 9.2
2014-Oct-24 08:00N 54°54' W 155°20'1 0.8 9.2
2014-Oct-24 07:00N 54°54' W 155°18'0 0.0 9.2
2014-Oct-24 06:00N 54°54' W 155°18'0 0.4 9.2
2014-Oct-24 05:00N 54°55' W 155°19'0 0.0 9.2
2014-Oct-24 04:00N 54°55' W 155°19'2 2.2 9.3
2014-Oct-24 03:00N 54°57' W 155°17'0 0.0 9.3
2014-Oct-24 02:00N 54°57' W 155°17'1 0.7 9.3
2014-Oct-24 01:00N 54°57' W 155°18'2 1.1 9.3
2014-Oct-23 23:00N 54°59' W 155°16'0 0.0 9.3
2014-Oct-23 22:00N 54°59' W 155°16'4 1.8 9.4
2014-Oct-23 20:00N 55°02' W 155°13'0 0.0 9.3
2014-Oct-23 17:00N 55°02' W 155°13'4 2.1 9.3
2014-Oct-23 15:00N 55°06' W 155°10'0 0.0 9.3
2014-Oct-23 14:00N 55°06' W 155°10'3 2.7 9.3
2014-Oct-23 13:00N 55°09' W 155°09'5 2.7 9.3
2014-Oct-23 11:00N 55°13' W 155°04'0 0.0 9.2
2014-Oct-23 07:00N 55°13' W 155°04'2 2.0 9.2
2014-Oct-23 06:00N 55°15' W 155°03'3 2.8 9.1
2014-Oct-23 05:00N 55°18' W 155°00'0 0.0 9.0
2014-Oct-23 04:00N 55°18' W 155°00'0 0.0 8.9
2014-Oct-23 03:00N 55°18' W 155°00'5 2.4 8.8
2014-Oct-23 01:00N 55°22' W 154°55'0 0.2 8.8
2014-Oct-23 00:00N 55°21' W 154°56'0 0.0 8.8
2014-Oct-22 23:00N 55°21' W 154°55'3 2.8 8.8
2014-Oct-22 22:00N 55°23' W 154°52'6 1.9 8.9
2014-Oct-22 19:00N 55°29' W 154°47'1 0.4 8.9
2014-Oct-22 16:00N 55°30' W 154°47'1 1.1 8.8
2014-Oct-22 15:00N 55°31' W 154°46'1 0.4 8.9
2014-Oct-22 13:00N 55°31' W 154°47'2 2.0 9.0
2014-Oct-22 12:00N 55°32' W 154°44'0 0.0 9.0
2014-Oct-22 11:00N 55°32' W 154°44'3 0.9 9.0
2014-Oct-22 07:00N 55°35' W 154°40'1 1.4 9.0
2014-Oct-22 06:00N 55°35' W 154°38'0 0.0 9.0
2014-Oct-22 04:00N 55°35' W 154°38'0 0.5 9.1
2014-Oct-22 03:00N 55°35' W 154°37'4 1.8 9.1
2014-Oct-22 01:00N 55°37' W 154°31'0 0.1 9.3
2014-Oct-22 00:00N 55°37' W 154°31'1 1.0 9.3
2014-Oct-21 23:00N 55°37' W 154°29'0 0.0 9.3
2014-Oct-21 22:00N 55°37' W 154°29'4 1.1 9.2
2014-Oct-21 18:00N 55°36' W 154°22'0 0.0 9.0
2014-Oct-21 17:00N 55°36' W 154°22'   9.0
Track history (hours):
 
Tides and Currents Weather Stations Pressure Air Temp Water Temp Dewpoint Dewpoint Depression Visibility Wind Speed Wind Dir Waves Ship Positions

Drifting buoy 46562

Last reported at 2014-Oct-31 17:00 UTC. Time now 2014-Nov-01 03:20 UTC.
Position N 54°12' W 155°40'.

Water temperature 8.6 ° C

Date/timePositionNaut miles runAvg speedWind from/ knotsBaromVisibWave heightAir tempDewpointWater temp
2014-Oct-31 17:00N 54°12' W 155°40'1 1.3 8.6
2014-Oct-31 16:00N 54°11' W 155°42'1 0.5 8.6
2014-Oct-31 15:00N 54°12' W 155°42'1 0.7 8.5
2014-Oct-31 14:00N 54°11' W 155°43'0 0.4 8.6
2014-Oct-31 13:00N 54°12' W 155°44'4 3.6 8.6
2014-Oct-31 12:00N 54°10' W 155°49'0 0.1 8.6
2014-Oct-31 08:00N 54°10' W 155°48'0 0.0 8.6
2014-Oct-31 07:00N 54°10' W 155°48'0 0.5 8.6
2014-Oct-31 06:00N 54°09' W 155°48'0 0.2 8.6
2014-Oct-31 05:00N 54°10' W 155°48'0 0.0 8.6
2014-Oct-31 04:00N 54°10' W 155°48'0 0.3 8.6
2014-Oct-31 03:00N 54°09' W 155°49'0 0.1 8.6
2014-Oct-31 01:00N 54°09' W 155°49'0 0.5 8.6
2014-Oct-31 00:00N 54°10' W 155°49'2 1.5 8.6
2014-Oct-30 23:00N 54°10' W 155°51'0 0.0 8.6
2014-Oct-30 22:00N 54°10' W 155°51'3 2.7 8.6
2014-Oct-30 21:00N 54°12' W 155°53'0 0.0 8.6
2014-Oct-30 20:00N 54°12' W 155°53'0 0.0 8.6
2014-Oct-30 19:00N 54°12' W 155°53'1 0.3 8.6
2014-Oct-30 17:00N 54°12' W 155°53'1 0.7 8.6
2014-Oct-30 16:00N 54°13' W 155°54'0 0.2 8.6
2014-Oct-30 14:00N 54°13' W 155°54'1 0.6 8.6
2014-Oct-30 13:00N 54°13' W 155°55'1 1.3 8.6
2014-Oct-30 12:00N 54°14' W 155°57'1 0.3 8.6
2014-Oct-30 08:00N 54°15' W 155°56'1 0.7 8.6
2014-Oct-30 07:00N 54°15' W 155°56'1 0.5 8.6
2014-Oct-30 05:00N 54°16' W 155°57'1 0.6 8.6
2014-Oct-30 04:00N 54°17' W 155°57'1 1.1 8.6
2014-Oct-30 03:00N 54°18' W 155°58'1 0.6 8.6
2014-Oct-30 02:00N 54°18' W 155°59'1 0.5 8.6
2014-Oct-30 00:00N 54°19' W 155°59'1 0.7 8.6
2014-Oct-29 23:00N 54°20' W 155°59'0 0.3 8.6
2014-Oct-29 22:00N 54°20' W 155°60'2 1.7 8.7
2014-Oct-29 21:00N 54°21' W 155°60'0 0.1 8.7
2014-Oct-29 20:00N 54°21' W 155°60'3 1.0 8.7
2014-Oct-29 17:00N 54°24' W 155°59'1 1.4 8.7
2014-Oct-29 16:00N 54°25' W 155°57'2 1.5 8.7
2014-Oct-29 15:00N 54°26' W 155°55'3 2.7 8.7
2014-Oct-29 14:00N 54°29' W 155°57'0 0.0 8.8
2014-Oct-29 12:00N 54°29' W 155°57'0 0.0 8.9
2014-Oct-29 11:00N 54°29' W 155°57'0 0.4 8.9
2014-Oct-29 10:00N 54°30' W 155°57'2 0.7 8.9
2014-Oct-29 07:00N 54°29' W 155°53'0 0.0 8.9
2014-Oct-29 06:00N 54°29' W 155°53'2 1.9 9.0
2014-Oct-29 05:00N 54°30' W 155°50'0 0.0 9.0
2014-Oct-29 04:00N 54°30' W 155°50'3 1.3 9.0
2014-Oct-29 02:00N 54°33' W 155°49'0 0.4 9.0
2014-Oct-29 01:00N 54°33' W 155°49'1 0.6 9.0
2014-Oct-29 00:00N 54°33' W 155°50'2 1.0 9.0
2014-Oct-28 22:00N 54°35' W 155°51'0 0.0 9.0
2014-Oct-28 21:00N 54°35' W 155°51'1 0.3 8.9
2014-Oct-28 18:00N 54°34' W 155°52'1 0.4 8.9
2014-Oct-28 16:00N 54°33' W 155°51'1 0.9 9.0
2014-Oct-28 15:00N 54°33' W 155°50'1 0.6 9.0
2014-Oct-28 14:00N 54°34' W 155°50'1 0.9 9.1
2014-Oct-28 13:00N 54°33' W 155°49'0 0.0 9.0
2014-Oct-28 12:00N 54°33' W 155°49'1 0.4 9.1
2014-Oct-28 09:00N 54°32' W 155°48'0 0.0 9.0
2014-Oct-28 08:00N 54°32' W 155°48'1 0.6 9.0
2014-Oct-28 07:00N 54°33' W 155°48'1 0.8 8.9
2014-Oct-28 06:00N 54°32' W 155°46'1 0.3 8.8
2014-Oct-28 04:00N 54°32' W 155°46'1 1.0 8.9
2014-Oct-28 03:00N 54°31' W 155°46'0 0.1 8.9
2014-Oct-28 02:00N 54°31' W 155°47'1 0.7 8.9
2014-Oct-28 01:00N 54°30' W 155°46'0 0.3 8.9
2014-Oct-28 00:00N 54°30' W 155°46'0 0.3 8.8
2014-Oct-27 23:00N 54°30' W 155°46'0 0.0 8.8
2014-Oct-27 22:00N 54°30' W 155°46'1 0.3 8.8
2014-Oct-27 18:00N 54°29' W 155°45'0 0.0 8.8
2014-Oct-27 17:00N 54°29' W 155°45'0 0.1 8.8
2014-Oct-27 16:00N 54°29' W 155°45'0 0.3 8.8
2014-Oct-27 15:00N 54°29' W 155°45'1 0.8 8.8
2014-Oct-27 14:00N 54°29' W 155°43'1 0.7 8.8
2014-Oct-27 13:00N 54°30' W 155°44'0 0.0 8.8
2014-Oct-27 12:00N 54°30' W 155°44'1 0.8 8.8
2014-Oct-27 11:00N 54°30' W 155°43'1 0.4 8.8
2014-Oct-27 07:00N 54°31' W 155°42'1 1.0 8.8
2014-Oct-27 06:00N 54°31' W 155°41'1 0.6 8.8
2014-Oct-27 05:00N 54°31' W 155°40'1 0.5 8.8
2014-Oct-27 04:00N 54°32' W 155°40'1 1.0 8.8
2014-Oct-27 03:00N 54°32' W 155°39'0 0.4 8.9
2014-Oct-27 02:00N 54°32' W 155°39'1 0.7 8.9
2014-Oct-27 00:00N 54°33' W 155°37'0 0.0 8.9
2014-Oct-26 23:00N 54°33' W 155°37'0 0.0 9.0
2014-Oct-26 22:00N 54°33' W 155°37'3 3.1 9.0
2014-Oct-26 21:00N 54°35' W 155°33'0 0.1 9.0
2014-Oct-26 17:00N 54°35' W 155°33'1 1.0 8.8
2014-Oct-26 16:00N 54°36' W 155°32'1 1.0 8.8
2014-Oct-26 15:00N 54°36' W 155°31'1 1.0 8.9
2014-Oct-26 14:00N 54°37' W 155°30'0 0.2 8.9
2014-Oct-26 13:00N 54°37' W 155°30'1 1.1 8.9
2014-Oct-26 12:00N 54°38' W 155°28'0 0.2 8.9
2014-Oct-26 11:00N 54°38' W 155°28'0 0.0 9.0
2014-Oct-26 10:00N 54°38' W 155°28'2 1.0 9.0
2014-Oct-26 08:00N 54°38' W 155°24'0 0.0 9.0
2014-Oct-26 07:00N 54°38' W 155°24'1 0.9 9.1
2014-Oct-26 06:00N 54°39' W 155°24'0 0.0 9.1
2014-Oct-26 05:00N 54°39' W 155°24'0 0.2 9.1
2014-Oct-26 03:00N 54°39' W 155°23'0 0.4 9.1
2014-Oct-26 02:00N 54°39' W 155°23'0 0.4 9.2
2014-Oct-26 01:00N 54°40' W 155°23'1 0.6 9.2
2014-Oct-26 00:00N 54°40' W 155°23'0 0.2 9.2
2014-Oct-25 23:00N 54°41' W 155°23'1 0.5 9.2
2014-Oct-25 21:00N 54°41' W 155°22'2 1.8 9.2
2014-Oct-25 20:00N 54°43' W 155°21'1 1.3 9.2
2014-Oct-25 19:00N 54°42' W 155°22'0 0.0 9.1
2014-Oct-25 18:00N 54°42' W 155°22'0 0.5 9.1
2014-Oct-25 17:00N 54°43' W 155°22'0 0.3 9.2
2014-Oct-25 16:00N 54°43' W 155°23'1 0.5 9.2
2014-Oct-25 15:00N 54°43' W 155°22'1 1.2 9.2
2014-Oct-25 14:00N 54°44' W 155°20'1 0.7 9.2
2014-Oct-25 13:00N 54°44' W 155°22'1 0.9 9.2
2014-Oct-25 12:00N 54°45' W 155°21'0 0.2 9.2
2014-Oct-25 11:00N 54°45' W 155°22'2 0.7 9.2
2014-Oct-25 08:00N 54°47' W 155°21'1 0.4 9.2
2014-Oct-25 06:00N 54°47' W 155°20'0 0.4 9.2
2014-Oct-25 05:00N 54°47' W 155°21'0 0.0 9.2
2014-Oct-25 04:00N 54°47' W 155°21'1 0.4 9.2
2014-Oct-25 02:00N 54°48' W 155°20'1 0.6 9.2
2014-Oct-25 01:00N 54°48' W 155°20'1 0.3 9.2
2014-Oct-24 23:00N 54°49' W 155°20'1 1.1 9.2
2014-Oct-24 22:00N 54°50' W 155°19'0 0.0 9.3
2014-Oct-24 21:00N 54°50' W 155°19'1 0.5 9.3
2014-Oct-24 18:00N 54°51' W 155°19'0 0.2 9.2
2014-Oct-24 17:00N 54°51' W 155°19'1 0.5 9.2
2014-Oct-24 16:00N 54°51' W 155°20'2 1.5 9.2
2014-Oct-24 15:00N 54°52' W 155°20'0 0.0 9.2
2014-Oct-24 14:00N 54°52' W 155°20'1 0.7 9.2
2014-Oct-24 13:00N 54°53' W 155°20'0 0.0 9.2
2014-Oct-24 11:00N 54°53' W 155°20'1 0.4 9.2
2014-Oct-24 08:00N 54°54' W 155°20'1 0.8 9.2
2014-Oct-24 07:00N 54°54' W 155°18'0 0.0 9.2
2014-Oct-24 06:00N 54°54' W 155°18'0 0.4 9.2
2014-Oct-24 05:00N 54°55' W 155°19'0 0.0 9.2
2014-Oct-24 04:00N 54°55' W 155°19'2 2.2 9.3
2014-Oct-24 03:00N 54°57' W 155°17'0 0.0 9.3
2014-Oct-24 02:00N 54°57' W 155°17'1 0.7 9.3
2014-Oct-24 01:00N 54°57' W 155°18'2 1.1 9.3
2014-Oct-23 23:00N 54°59' W 155°16'0 0.0 9.3
2014-Oct-23 22:00N 54°59' W 155°16'4 1.8 9.4
2014-Oct-23 20:00N 55°02' W 155°13'0 0.0 9.3
2014-Oct-23 17:00N 55°02' W 155°13'4 2.1 9.3
2014-Oct-23 15:00N 55°06' W 155°10'0 0.0 9.3
2014-Oct-23 14:00N 55°06' W 155°10'3 2.7 9.3
2014-Oct-23 13:00N 55°09' W 155°09'5 2.7 9.3
2014-Oct-23 11:00N 55°13' W 155°04'0 0.0 9.2
2014-Oct-23 07:00N 55°13' W 155°04'2 2.0 9.2
2014-Oct-23 06:00N 55°15' W 155°03'3 2.8 9.1
2014-Oct-23 05:00N 55°18' W 155°00'0 0.0 9.0
2014-Oct-23 04:00N 55°18' W 155°00'0 0.0 8.9
2014-Oct-23 03:00N 55°18' W 155°00'5 2.4 8.8
2014-Oct-23 01:00N 55°22' W 154°55'0 0.2 8.8
2014-Oct-23 00:00N 55°21' W 154°56'0 0.0 8.8
2014-Oct-22 23:00N 55°21' W 154°55'3 2.8 8.8
2014-Oct-22 22:00N 55°23' W 154°52'6 1.9 8.9
2014-Oct-22 19:00N 55°29' W 154°47'1 0.4 8.9
2014-Oct-22 16:00N 55°30' W 154°47'1 1.1 8.8
2014-Oct-22 15:00N 55°31' W 154°46'1 0.4 8.9
2014-Oct-22 13:00N 55°31' W 154°47'2 2.0 9.0
2014-Oct-22 12:00N 55°32' W 154°44'0 0.0 9.0
2014-Oct-22 11:00N 55°32' W 154°44'3 0.9 9.0
2014-Oct-22 07:00N 55°35' W 154°40'1 1.4 9.0
2014-Oct-22 06:00N 55°35' W 154°38'0 0.0 9.0
2014-Oct-22 04:00N 55°35' W 154°38'0 0.5 9.1
2014-Oct-22 03:00N 55°35' W 154°37'4 1.8 9.1
2014-Oct-22 01:00N 55°37' W 154°31'0 0.1 9.3
2014-Oct-22 00:00N 55°37' W 154°31'1 1.0 9.3
2014-Oct-21 23:00N 55°37' W 154°29'0 0.0 9.3
2014-Oct-21 22:00N 55°37' W 154°29'4 1.1 9.2
2014-Oct-21 18:00N 55°36' W 154°22'0 0.0 9.0
2014-Oct-21 17:00N 55°36' W 154°22'   9.0

Dump ship's entire track history